Time;durP1;ratioP1;P1;durP2;ratioP2;P2;SDS_P1;SDS_P2;PMS_P1;PMS_P2;Temp;Humidity;BMP_temperature;BMP_pressure;BME280_temperature;BME280_humidity;BME280_pressure;Samples;Min_cycle;Max_cycle;Signal;HPM_P1;HPM_P2
2022/08/02 00:02:21;;;;;;;2.15;1.65;;;;;;;21.44;40.81;94763.66;5046618;28;20209;-67
2022/08/02 00:04:46;;;;;;;1.80;1.70;;;;;;;21.39;40.29;94756.31;5048843;28;20201;-67
2022/08/02 00:07:13;;;;;;;2.72;1.40;;;;;;;21.40;40.17;94757.94;5051174;28;20274;-67
2022/08/02 00:09:39;;;;;;;2.70;1.67;;;;;;;21.42;39.53;94753.19;5050290;28;20221;-67
2022/08/02 00:12:05;;;;;;;2.88;1.40;;;;;;;21.44;39.28;94759.13;5046921;28;20232;-67
2022/08/02 00:14:30;;;;;;;1.70;1.60;;;;;;;21.42;40.67;94758.53;5045571;28;20229;-67
2022/08/02 00:16:55;;;;;;;1.40;1.30;;;;;;;21.24;41.11;94751.31;5044860;28;20668;-66
2022/08/02 00:19:21;;;;;;;1.98;1.50;;;;;;;21.19;41.57;94758.38;5046631;28;20217;-66
2022/08/02 00:21:47;;;;;;;2.15;1.80;;;;;;;21.00;41.81;94750.34;5060496;28;20632;-66
2022/08/02 00:24:12;;;;;;;2.85;1.80;;;;;;;20.96;41.95;94746.53;5038491;28;20254;-66
2022/08/02 00:26:38;;;;;;;1.75;1.60;;;;;;;21.02;41.94;94752.81;5046931;28;20252;-66
2022/08/02 00:29:04;;;;;;;2.45;1.70;;;;;;;20.92;42.04;94742.66;5053520;28;20198;-67
2022/08/02 00:31:29;;;;;;;2.08;1.60;;;;;;;20.99;42.07;94746.06;5057158;28;20256;-67
2022/08/02 00:33:55;;;;;;;8.07;1.88;;;;;;;21.04;41.60;94740.88;5024934;28;20229;-67
2022/08/02 00:36:20;;;;;;;4.05;2.03;;;;;;;21.01;42.03;94754.69;5025123;28;20221;-66
2022/08/02 00:38:47;;;;;;;2.00;1.60;;;;;;;20.91;42.15;94755.19;5029705;28;20226;-66
2022/08/02 00:41:18;;;;;;;4.35;2.28;;;;;;;20.88;43.25;94746.81;5047332;28;20683;-68
2022/08/02 00:43:46;;;;;;;3.38;2.10;;;;;;;20.88;44.36;94742.28;5043394;28;20228;-68
2022/08/02 00:46:12;;;;;;;3.63;2.25;;;;;;;20.91;45.27;94744.50;5060388;28;20229;-68
2022/08/02 00:48:37;;;;;;;3.85;2.78;;;;;;;20.75;46.08;94752.28;5045544;28;20217;-67
2022/08/02 00:51:03;;;;;;;2.65;2.45;;;;;;;20.70;46.44;94743.06;5043251;28;20218;-67
2022/08/02 00:53:29;;;;;;;3.20;2.28;;;;;;;20.60;46.82;94740.09;5060434;28;20290;-67
2022/08/02 00:55:54;;;;;;;2.97;2.33;;;;;;;20.52;46.98;94743.00;5044329;28;20285;-67
2022/08/02 00:58:20;;;;;;;2.95;2.67;;;;;;;20.36;47.74;94744.38;5060895;28;20321;-67
2022/08/02 01:00:46;;;;;;;4.70;2.67;;;;;;;19.97;48.97;94742.88;5043356;28;20225;-67
2022/08/02 01:03:12;;;;;;;4.30;2.80;;;;;;;20.04;49.00;94757.78;5048408;28;20240;-67
2022/08/02 01:05:37;;;;;;;3.63;2.72;;;;;;;20.04;49.46;94752.44;5064454;28;20244;-67
2022/08/02 01:08:03;;;;;;;3.55;2.90;;;;;;;20.21;48.75;94746.59;5062540;28;20193;-66
2022/08/02 01:10:29;;;;;;;4.82;2.63;;;;;;;20.27;48.41;94751.88;5062272;28;20234;-67
2022/08/02 01:12:54;;;;;;;2.85;2.53;;;;;;;20.28;48.41;94742.81;5043985;28;20697;-68
2022/08/02 01:15:21;;;;;;;2.70;2.50;;;;;;;20.20;48.45;94743.09;5045905;28;20270;-68
2022/08/02 01:18:04;;;;;;;3.63;3.08;;;;;;;20.22;48.73;94743.69;5046907;28;20230;-67
2022/08/02 01:20:58;;;;;;;4.00;2.53;;;;;;;20.13;48.84;94750.34;5044198;28;20773;-67
2022/08/02 01:23:47;;;;;;;4.22;2.50;;;;;;;19.97;49.13;94745.56;5043891;28;20240;-67
2022/08/02 01:26:47;;;;;;;3.75;3.00;;;;;;;19.97;48.87;94750.88;5044007;28;20201;-67
2022/08/02 01:29:29;;;;;;;3.55;2.42;;;;;;;19.96;48.66;94758.06;5039777;28;20286;-66
2022/08/02 01:32:30;;;;;;;2.72;2.33;;;;;;;19.84;48.76;94762.47;5043058;28;20237;-67
2022/08/02 01:35:08;;;;;;;4.20;2.80;;;;;;;19.75;48.91;94753.91;5009033;28;20543;-68
2022/08/02 01:37:48;;;;;;;2.75;2.30;;;;;;;19.69;48.83;94751.25;5010326;28;20228;-67
2022/08/02 01:40:21;;;;;;;2.60;2.40;;;;;;;19.70;48.76;94756.41;5011374;28;20213;-67
2022/08/02 01:42:52;;;;;;;2.50;2.30;;;;;;;19.73;48.87;94765.81;5012921;28;20490;-67
2022/08/02 01:45:20;;;;;;;3.38;2.30;;;;;;;19.56;49.43;94760.13;5023838;28;20222;-66
2022/08/02 01:47:47;;;;;;;3.28;2.65;;;;;;;19.58;49.20;94760.72;5007313;28;20250;-66
2022/08/02 01:50:16;;;;;;;4.15;2.55;;;;;;;19.54;49.05;94756.84;5008591;28;20198;-68
2022/08/02 01:52:48;;;;;;;4.32;2.58;;;;;;;18.89;50.89;94751.59;5021274;28;20222;-68
2022/08/02 01:55:20;;;;;;;2.92;2.70;;;;;;;19.12;50.08;94759.09;5011395;28;20222;-67
2022/08/02 01:57:52;;;;;;;2.88;2.67;;;;;;;19.10;50.11;94750.50;5011840;28;20226;-66
2022/08/02 02:00:21;;;;;;;8.85;2.60;;;;;;;19.16;50.05;94763.81;5012215;28;20236;-66
2022/08/02 02:02:48;;;;;;;2.60;2.40;;;;;;;19.26;49.82;94765.19;5022010;28;20326;-67
2022/08/02 02:05:18;;;;;;;3.28;2.80;;;;;;;19.22;49.60;94761.31;5007686;28;20259;-67
2022/08/02 02:07:47;;;;;;;3.83;2.72;;;;;;;19.18;49.68;94764.41;5008691;28;20206;-67
2022/08/02 02:10:16;;;;;;;2.88;2.67;;;;;;;19.02;50.20;94769.38;5011665;28;20229;-67
2022/08/02 02:12:45;;;;;;;3.00;2.70;;;;;;;19.14;49.70;94762.38;5032567;28;20253;-67
2022/08/02 02:15:11;;;;;;;4.25;2.90;;;;;;;19.00;49.99;94760.78;5029112;28;20222;-67
2022/08/02 02:17:41;;;;;;;4.50;2.55;;;;;;;19.04;49.93;94762.00;5036117;28;20237;-67
2022/08/02 02:20:08;;;;;;;2.53;2.30;;;;;;;19.02;50.02;94758.72;5023437;28;20213;-66
2022/08/02 02:22:34;;;;;;;4.10;2.50;;;;;;;18.98;49.97;94761.00;5024131;28;20202;-66
2022/08/02 02:24:59;;;;;;;2.92;2.63;;;;;;;18.92;50.25;94751.16;5026975;28;20326;-68
2022/08/02 02:27:26;;;;;;;3.53;2.58;;;;;;;18.89;50.00;94757.72;5060234;28;20233;-67
2022/08/02 02:29:53;;;;;;;2.95;2.47;;;;;;;18.87;50.15;94754.47;5027689;28;20237;-67
2022/08/02 02:32:21;;;;;;;2.55;2.35;;;;;;;18.84;50.40;94760.19;5060451;28;20241;-68
2022/08/02 02:34:48;;;;;;;2.60;2.40;;;;;;;18.86;50.51;94760.81;5041041;28;20221;-68
2022/08/02 02:37:22;;;;;;;3.65;2.58;;;;;;;18.91;50.67;94769.00;5023649;28;20230;-66
2022/08/02 02:39:51;;;;;;;3.97;2.63;;;;;;;18.78;51.05;94753.06;5046610;28;20231;-68
2022/08/02 02:42:18;;;;;;;3.13;2.40;;;;;;;18.90;50.75;94759.38;5025737;28;20315;-67
2022/08/02 02:44:46;;;;;;;2.85;2.10;;;;;;;18.74;51.19;94757.16;5025720;28;20225;-66
2022/08/02 02:47:15;;;;;;;2.53;2.33;;;;;;;18.83;51.24;94761.25;5023127;28;20215;-67
2022/08/02 02:49:43;;;;;;;2.85;2.22;;;;;;;18.79;50.92;94756.53;5040685;28;20362;-66
2022/08/02 02:52:13;;;;;;;3.85;2.90;;;;;;;18.85;50.55;94756.53;5039440;28;20225;-66
2022/08/02 02:54:38;;;;;;;2.42;2.13;;;;;;;18.71;50.35;94758.38;5028165;28;20444;-68
2022/08/02 02:57:05;;;;;;;2.47;2.08;;;;;;;18.68;50.22;94753.47;5023390;28;20225;-68
2022/08/02 02:59:32;;;;;;;3.47;2.22;;;;;;;18.70;50.13;94750.59;5025707;28;20225;-67
2022/08/02 03:02:04;;;;;;;4.72;2.05;;;;;;;18.67;50.54;94764.31;5024594;28;20198;-67
2022/08/02 03:04:31;;;;;;;2.58;1.95;;;;;;;18.66;50.36;94754.72;5043844;28;20264;-68
2022/08/02 03:06:56;;;;;;;2.50;2.30;;;;;;;18.59;50.25;94745.91;5041651;28;20227;-67
2022/08/02 03:09:22;;;;;;;3.70;2.20;;;;;;;18.66;50.00;94752.84;5032521;28;20725;-67
2022/08/02 03:11:48;;;;;;;5.30;2.28;;;;;;;18.50;50.71;94761.28;5022817;28;20233;-67
2022/08/02 03:14:14;;;;;;;4.00;2.15;;;;;;;18.59;50.89;94756.56;5023671;28;20210;-67
2022/08/02 03:16:44;;;;;;;3.72;2.20;;;;;;;18.54;51.04;94767.00;5040892;28;20209;-67
2022/08/02 03:19:10;;;;;;;3.20;2.38;;;;;;;18.48;51.49;94764.13;5030972;28;20230;-66
2022/08/02 03:21:35;;;;;;;4.28;2.40;;;;;;;18.54;51.28;94751.84;5029442;28;20232;-66
2022/08/02 03:24:00;;;;;;;5.53;2.50;;;;;;;18.60;50.86;94755.50;5027420;28;20221;-67
2022/08/02 03:26:26;;;;;;;2.67;2.47;;;;;;;18.63;51.09;94747.94;5028476;28;20225;-68
2022/08/02 03:28:51;;;;;;;6.22;2.95;;;;;;;18.59;51.25;94759.22;5044705;28;20258;-67
2022/08/02 03:31:17;;;;;;;3.95;2.50;;;;;;;18.39;51.73;94762.72;5061998;28;20229;-66
2022/08/02 03:33:43;;;;;;;4.97;2.47;;;;;;;18.57;51.81;94763.91;5043843;28;20236;-65
2022/08/02 03:36:15;;;;;;;4.60;2.60;;;;;;;18.48;51.85;94763.34;5064223;28;20240;-67
2022/08/02 03:38:41;;;;;;;5.70;2.35;;;;;;;18.49;51.57;94755.13;5062703;28;20213;-66
2022/08/02 03:41:08;;;;;;;4.40;2.30;;;;;;;18.49;51.72;94770.28;5049336;28;20213;-66
2022/08/02 03:43:35;;;;;;;2.97;2.60;;;;;;;18.40;51.85;94761.69;5043057;28;20232;-67
2022/08/02 03:46:03;;;;;;;2.25;2.08;;;;;;;18.45;51.74;94761.09;5045553;28;20247;-66
2022/08/02 03:48:29;;;;;;;3.72;2.70;;;;;;;18.41;52.05;94765.16;5045487;28;20229;-67
2022/08/02 03:50:56;;;;;;;4.97;2.35;;;;;;;18.42;51.98;94758.84;5045929;28;20225;-67
2022/08/02 03:53:22;;;;;;;2.85;2.47;;;;;;;18.54;51.55;94772.31;5045041;28;20202;-67
2022/08/02 03:55:49;;;;;;;6.40;2.90;;;;;;;18.62;51.82;94764.94;5051278;28;20359;-67
2022/08/02 03:58:22;;;;;;;6.22;2.63;;;;;;;18.67;52.09;94783.78;5046151;28;20218;-66
2022/08/02 04:00:48;;;;;;;3.65;2.75;;;;;;;18.67;52.12;94775.78;5044538;28;20229;-67
2022/08/02 04:03:14;;;;;;;5.25;3.15;;;;;;;18.73;51.63;94782.13;5043311;28;20217;-67
2022/08/02 04:05:40;;;;;;;3.00;2.80;;;;;;;18.80;50.92;94790.16;5045602;28;20228;-67
2022/08/02 04:08:06;;;;;;;2.92;2.53;;;;;;;18.41;52.17;94789.94;5059571;28;20258;-67
2022/08/02 04:11:29;;;;;;;2.80;2.60;;;;;;;18.58;51.86;94794.84;5061742;28;20405;-67
2022/08/02 04:13:18;;;;;;;2.83;2.40;;;;;;;18.54;52.10;94788.31;5047226;28;20217;-67
2022/08/02 04:15:45;;;;;;;4.22;3.15;;;;;;;18.68;51.62;94797.91;5061082;28;20217;-67
2022/08/02 04:18:11;;;;;;;10.00;3.47;;;;;;;18.82;51.32;94804.91;5044628;28;20228;-67
2022/08/02 04:20:38;;;;;;;3.58;2.92;;;;;;;18.65;52.47;94808.97;5037351;28;20217;-67
2022/08/02 04:23:07;;;;;;;4.70;3.40;;;;;;;18.63;53.25;94808.34;5042887;28;20193;-67
2022/08/02 04:25:34;;;;;;;5.47;3.17;;;;;;;18.51;53.93;94805.50;5056431;28;20197;-67
2022/08/02 04:28:01;;;;;;;5.00;3.40;;;;;;;18.68;53.59;94801.41;5044218;28;20209;-66
2022/08/02 04:30:28;;;;;;;6.40;3.92;;;;;;;18.89;52.88;94805.69;5047150;28;20260;-66
2022/08/02 04:32:54;;;;;;;9.32;3.70;;;;;;;18.92;52.42;94805.28;5046497;28;20213;-66
2022/08/02 04:35:21;;;;;;;5.63;3.40;;;;;;;18.95;52.16;94799.53;5038173;28;20198;-66
2022/08/02 04:37:47;;;;;;;6.13;3.78;;;;;;;18.99;52.08;94796.47;5061531;28;20267;-66
2022/08/02 04:40:14;;;;;;;4.93;3.80;;;;;;;19.11;50.91;94797.44;5044075;28;20219;-66
2022/08/02 04:42:40;;;;;;;5.25;3.30;;;;;;;19.07;51.56;94799.69;5041206;28;20232;-67
2022/08/02 04:45:08;;;;;;;5.65;3.70;;;;;;;19.10;51.22;94803.78;5046340;28;20248;-67
2022/08/02 04:47:34;;;;;;;3.67;3.05;;;;;;;19.15;50.80;94799.47;5027611;28;20225;-67
2022/08/02 04:50:00;;;;;;;6.43;3.55;;;;;;;19.24;50.49;94802.72;5042073;28;20217;-66
2022/08/02 04:52:26;;;;;;;6.97;3.83;;;;;;;19.24;50.47;94810.72;5041193;28;20226;-68
2022/08/02 04:54:52;;;;;;;4.15;3.75;;;;;;;19.21;50.41;94805.81;5053996;28;20246;-63
2022/08/02 05:00:04;;;;;;;3.97;3.53;;;;;;;19.21;48.92;94807.66;5044744;28;20252;-63
2022/08/02 05:02:29;;;;;;;5.60;3.85;;;;;;;19.30;48.65;94804.56;5046913;28;20217;-62
2022/08/02 05:04:54;;;;;;;3.78;3.38;;;;;;;19.24;49.44;94808.03;5048638;28;20205;-64
2022/08/02 05:07:20;;;;;;;4.07;3.40;;;;;;;19.47;49.08;94810.22;5046014;28;20229;-63
2022/08/02 05:09:45;;;;;;;6.88;3.85;;;;;;;19.51;49.01;94813.28;5057649;28;20221;-63
2022/08/02 05:12:11;;;;;;;8.25;4.10;;;;;;;19.60;48.63;94798.69;5043483;28;20316;-62
2022/08/02 05:14:36;;;;;;;8.18;3.70;;;;;;;19.74;48.28;94805.59;5042466;28;20240;-63
2022/08/02 05:17:02;;;;;;;3.97;3.40;;;;;;;19.75;48.31;94814.41;5025415;28;20309;-63
2022/08/02 05:19:27;;;;;;;4.22;3.20;;;;;;;19.70;48.71;94815.09;5045020;28;20218;-64
2022/08/02 05:21:53;;;;;;;6.90;3.85;;;;;;;19.87;48.21;94817.25;5044850;28;20244;-64
2022/08/02 05:24:18;;;;;;;7.07;4.00;;;;;;;19.79;48.62;94818.31;5042234;28;20244;-65
2022/08/02 05:26:44;;;;;;;4.38;3.42;;;;;;;19.97;47.91;94822.94;5041644;28;20225;-65
2022/08/02 05:29:09;;;;;;;10.43;3.55;;;;;;;20.11;47.41;94823.66;5041865;28;20206;-64
2022/08/02 05:31:35;;;;;;;4.38;3.40;;;;;;;20.22;46.97;94823.78;5053850;28;20225;-68
2022/08/02 05:34:00;;;;;;;6.00;4.28;;;;;;;20.32;46.46;94817.16;5061424;28;20221;-65
2022/08/02 05:36:26;;;;;;;4.60;3.42;;;;;;;20.35;46.38;94812.19;5045600;28;20316;-65
2022/08/02 05:38:51;;;;;;;9.48;3.80;;;;;;;20.53;45.63;94810.59;5040590;28;20234;-66
2022/08/02 05:41:18;;;;;;;6.85;3.45;;;;;;;20.70;45.13;94827.75;5041536;28;20221;-67
2022/08/02 05:43:44;;;;;;;4.85;3.60;;;;;;;20.76;44.46;94826.88;5041180;28;20205;-66
2022/08/02 05:46:10;;;;;;;5.70;3.65;;;;;;;20.78;44.27;94824.81;5041535;28;20214;-66
2022/08/02 05:48:35;;;;;;;8.13;3.03;;;;;;;20.93;44.28;94832.50;5058709;28;20221;-67
2022/08/02 05:51:11;;;;;;;4.57;3.15;;;;;;;20.99;44.04;94828.13;5041601;28;20230;-67
2022/08/02 05:53:50;;;;;;;6.68;3.35;;;;;;;21.03;43.24;94827.44;5040836;28;20260;-66
2022/08/02 05:56:16;;;;;;;6.38;3.42;;;;;;;21.18;42.87;94828.94;5043907;28;20205;-66
2022/08/02 05:58:55;;;;;;;6.07;3.33;;;;;;;21.20;42.19;94832.19;5045187;28;20264;-67
2022/08/02 06:01:32;;;;;;;3.10;2.70;;;;;;;21.26;40.89;94839.34;5034495;28;20253;-65
2022/08/02 06:03:59;;;;;;;3.83;2.97;;;;;;;21.28;39.88;94842.63;5040860;28;20263;-65
2022/08/02 06:06:25;;;;;;;2.42;2.20;;;;;;;21.30;39.64;94835.19;5042779;28;20225;-66
2022/08/02 06:09:18;;;;;;;2.58;2.28;;;;;;;21.29;39.86;94847.72;5042318;28;20225;-66
2022/08/02 06:11:48;;;;;;;2.25;2.05;;;;;;;21.39;40.26;94849.94;5039935;28;20241;-65
2022/08/02 06:14:15;;;;;;;3.67;2.15;;;;;;;21.43;39.66;94842.28;5048522;28;20240;-66
2022/08/02 06:16:43;;;;;;;3.35;2.20;;;;;;;21.45;39.76;94841.00;5038117;28;20751;-64
2022/08/02 06:19:11;;;;;;;3.85;2.33;;;;;;;21.50;39.51;94845.69;5043969;28;20263;-66
2022/08/02 06:21:39;;;;;;;8.18;4.40;;;;;;;21.44;39.12;94842.06;5039001;28;20291;-66
2022/08/02 06:24:07;;;;;;;3.38;2.33;;;;;;;21.46;39.50;94847.97;5058145;28;20232;-68
2022/08/02 06:26:35;;;;;;;2.38;1.90;;;;;;;21.59;39.28;94850.50;5036651;28;20310;-66
2022/08/02 06:29:01;;;;;;;2.92;2.00;;;;;;;21.63;39.03;94850.88;5037843;28;20202;-65
2022/08/02 06:31:26;;;;;;;2.55;1.70;;;;;;;21.67;39.19;94856.59;5041689;28;20248;-65
2022/08/02 06:33:52;;;;;;;5.97;2.08;;;;;;;21.64;39.67;94846.34;5044893;28;20221;-65
2022/08/02 06:36:37;;;;;;;4.13;1.90;;;;;;;21.70;39.64;94853.47;5037618;28;20280;-65
2022/08/02 06:39:04;;;;;;;3.65;2.20;;;;;;;21.65;40.03;94869.38;5038852;28;20248;-65
2022/08/02 06:41:39;;;;;;;3.72;2.30;;;;;;;21.75;39.88;94865.13;5056393;28;20316;-66
2022/08/02 06:44:05;;;;;;;2.97;2.30;;;;;;;21.82;39.55;94865.06;5054842;28;20206;-66
2022/08/02 06:46:31;;;;;;;2.03;1.88;;;;;;;21.84;39.58;94857.63;5041330;28;20217;-66
2022/08/02 06:48:58;;;;;;;2.42;2.22;;;;;;;21.83;39.34;94855.97;5029694;28;20233;-65
2022/08/02 06:51:23;;;;;;;2.08;1.75;;;;;;;21.78;39.94;94854.00;5030393;28;20280;-66
2022/08/02 06:53:49;;;;;;;2.38;2.08;;;;;;;21.91;39.31;94863.69;5019882;28;20245;-68
2022/08/02 06:56:15;;;;;;;2.70;2.10;;;;;;;22.03;39.30;94855.72;5015081;28;20202;-66
2022/08/02 06:58:40;;;;;;;3.22;1.70;;;;;;;22.09;38.77;94854.00;5022206;28;20735;-66
2022/08/02 07:01:06;;;;;;;2.97;1.90;;;;;;;22.13;38.65;94855.16;5018674;28;20228;-67
2022/08/02 07:03:36;;;;;;;4.55;2.03;;;;;;;22.13;38.91;94853.34;5021194;28;20252;-66
2022/08/02 07:06:03;;;;;;;3.08;1.98;;;;;;;22.21;38.92;94853.03;5024795;28;20242;-65
2022/08/02 07:08:31;;;;;;;6.25;2.25;;;;;;;22.24;38.64;94851.78;5030527;28;20228;-67
2022/08/02 07:10:59;;;;;;;2.70;2.15;;;;;;;22.37;38.55;94854.25;5044729;28;20201;-66
2022/08/02 07:13:26;;;;;;;1.95;1.85;;;;;;;22.29;38.45;94854.56;5041332;28;20299;-66
2022/08/02 07:15:51;;;;;;;4.63;2.42;;;;;;;22.40;38.95;94856.47;5039500;28;20225;-66
2022/08/02 07:18:17;;;;;;;2.50;2.30;;;;;;;22.44;38.05;94856.81;5041251;28;20233;-66
2022/08/02 07:20:43;;;;;;;2.35;2.15;;;;;;;22.44;38.41;94856.81;5041899;28;20218;-66
2022/08/02 07:23:08;;;;;;;2.30;1.88;;;;;;;22.51;38.58;94852.19;5044763;28;20209;-67
2022/08/02 07:25:34;;;;;;;2.75;2.20;;;;;;;22.55;38.58;94856.03;5025908;28;20217;-66
2022/08/02 07:27:59;;;;;;;2.65;2.10;;;;;;;22.73;38.41;94860.50;5028589;28;20241;-66
2022/08/02 07:30:25;;;;;;;2.40;2.20;;;;;;;22.78;38.49;94860.63;5021015;28;20257;-66
2022/08/02 07:32:50;;;;;;;4.25;1.48;;;;;;;22.68;37.80;94844.28;5022322;28;20226;-68
2022/08/02 07:35:16;;;;;;;2.33;1.70;;;;;;;22.78;37.71;94857.94;5053208;28;20210;-66
2022/08/02 07:37:44;;;;;;;1.80;1.65;;;;;;;22.76;37.91;94851.97;5019550;28;20224;-65
2022/08/02 07:40:11;;;;;;;3.85;1.60;;;;;;;22.76;38.36;94846.63;5041967;28;20233;-66
2022/08/02 07:42:37;;;;;;;5.35;1.80;;;;;;;22.89;38.32;94854.44;5029675;28;20222;-67
2022/08/02 07:45:03;;;;;;;2.17;1.30;;;;;;;22.85;37.28;94855.97;5031190;28;20221;-67
2022/08/02 07:47:28;;;;;;;1.90;1.80;;;;;;;22.86;37.19;94849.53;5037977;28;20363;-65
2022/08/02 07:49:54;;;;;;;2.63;1.90;;;;;;;22.86;37.62;94849.53;5006884;28;20283;-67
2022/08/02 07:52:19;;;;;;;1.95;1.80;;;;;;;22.89;37.44;94838.34;5021494;28;20222;-67
2022/08/02 07:54:45;;;;;;;2.25;1.80;;;;;;;22.97;37.90;94844.47;5021753;28;20725;-67
2022/08/02 07:57:11;;;;;;;1.75;1.55;;;;;;;22.98;37.76;94841.53;5025632;28;20326;-67
2022/08/02 07:59:37;;;;;;;2.45;1.67;;;;;;;23.13;37.01;94845.63;5025197;28;20226;-68
2022/08/02 08:02:02;;;;;;;3.95;1.80;;;;;;;23.22;37.19;94847.69;5025993;28;20206;-68
2022/08/02 08:04:28;;;;;;;2.75;1.92;;;;;;;23.24;36.83;94845.59;5054635;28;20233;-67
2022/08/02 08:06:54;;;;;;;2.92;1.80;;;;;;;23.19;37.00;94850.03;5026413;28;20234;-65
2022/08/02 08:09:19;;;;;;;7.57;1.90;;;;;;;23.19;36.75;94844.69;5040702;28;20229;-67
2022/08/02 08:11:45;;;;;;;1.80;1.63;;;;;;;23.21;36.40;94846.06;5056409;28;20241;-68
2022/08/02 08:14:11;;;;;;;2.85;1.85;;;;;;;23.26;37.06;94843.50;5024569;28;20221;-68
2022/08/02 08:16:36;;;;;;;2.80;1.60;;;;;;;23.30;37.14;94850.00;5025390;28;20213;-66
2022/08/02 08:19:02;;;;;;;2.65;1.50;;;;;;;23.24;36.81;94845.59;5060290;28;20233;-66
2022/08/02 08:21:28;;;;;;;3.85;1.80;;;;;;;23.33;36.65;94843.38;5027079;28;20222;-66
2022/08/02 08:23:54;;;;;;;3.13;1.63;;;;;;;23.31;36.77;94838.25;5058268;28;20230;-68
2022/08/02 08:26:20;;;;;;;3.33;1.58;;;;;;;23.34;36.68;94839.66;5025215;28;20287;-68
2022/08/02 08:28:45;;;;;;;1.63;1.40;;;;;;;23.47;37.27;94841.25;5056725;28;20252;-67
2022/08/02 08:31:11;;;;;;;1.50;1.40;;;;;;;23.51;37.54;94845.09;5028503;28;20246;-66
2022/08/02 08:33:36;;;;;;;3.03;1.20;;;;;;;23.54;36.87;94840.06;5029827;28;20317;-67
2022/08/02 08:36:03;;;;;;;2.15;1.42;;;;;;;23.64;36.42;94844.03;5028784;28;20230;-67
2022/08/02 08:38:28;;;;;;;1.73;1.30;;;;;;;23.64;36.39;94839.47;5022512;28;20245;-67
2022/08/02 08:40:54;;;;;;;1.88;1.25;;;;;;;23.71;36.61;94839.31;5028052;28;20210;-67
2022/08/02 08:43:20;;;;;;;2.75;1.30;;;;;;;23.73;36.49;94845.31;5025642;28;20462;-66
2022/08/02 08:45:47;;;;;;;2.47;1.35;;;;;;;23.94;36.45;94843.84;5038650;28;20290;-68
2022/08/02 08:48:15;;;;;;;3.85;1.42;;;;;;;23.72;36.01;94843.69;5061188;28;20499;-67
2022/08/02 08:50:59;;;;;;;1.98;1.40;;;;;;;23.63;36.63;94842.38;5048497;28;20221;-66
2022/08/02 08:53:28;;;;;;;4.47;1.58;;;;;;;23.67;36.83;94833.63;5048450;28;20228;-68
2022/08/02 08:55:56;;;;;;;1.35;1.25;;;;;;;23.91;35.78;94845.13;5055665;28;20209;-66
2022/08/02 08:58:22;;;;;;;1.65;1.27;;;;;;;24.05;35.42;94834.91;5042555;28;20283;-67
2022/08/02 09:00:48;;;;;;;1.50;1.40;;;;;;;24.03;35.68;94836.19;5038131;28;20217;-68
2022/08/02 09:03:13;;;;;;;1.50;1.40;;;;;;;24.14;35.65;94843.41;5023478;28;20222;-66
2022/08/02 09:05:40;;;;;;;6.07;1.70;;;;;;;24.26;35.26;94829.91;5025151;28;20222;-66
2022/08/02 09:08:07;;;;;;;2.55;1.30;;;;;;;24.17;34.95;94838.38;5028606;28;20195;-66
2022/08/02 09:10:39;;;;;;;1.30;1.20;;;;;;;24.22;34.46;94843.03;5027082;28;20252;-66
2022/08/02 09:13:09;;;;;;;1.40;1.23;;;;;;;24.33;34.12;94841.34;5039326;28;20276;-65
2022/08/02 09:15:36;;;;;;;2.28;1.08;;;;;;;24.46;34.04;94846.44;5034312;28;20272;-72
2022/08/02 09:18:04;;;;;;;1.52;1.20;;;;;;;24.45;34.01;94841.28;5032520;28;20235;-64
2022/08/02 09:20:32;;;;;;;6.18;1.15;;;;;;;24.54;34.03;94840.66;5042993;28;20300;-63
2022/08/02 09:23:09;;;;;;;1.48;1.33;;;;;;;24.75;33.79;94836.44;5042737;28;20842;-63
2022/08/02 09:25:35;;;;;;;2.80;2.47;;;;;;;24.86;33.30;94835.53;5039482;28;20312;-64
2022/08/02 09:28:04;;;;;;;2.10;1.17;;;;;;;24.94;32.93;94828.94;5041723;28;20618;-64
2022/08/02 09:30:31;;;;;;;2.05;1.20;;;;;;;25.28;33.45;94827.00;5022630;28;20417;-64
2022/08/02 09:32:56;;;;;;;2.08;1.17;;;;;;;25.46;32.29;94828.59;5025928;28;20224;-63
2022/08/02 09:35:33;;;;;;;1.80;1.10;;;;;;;25.52;32.27;94826.78;5053557;28;20273;-64
2022/08/02 09:38:12;;;;;;;0.93;0.88;;;;;;;25.44;32.09;94824.53;5023038;28;20225;-62
2022/08/02 09:40:39;;;;;;;0.77;0.77;;;;;;;25.39;31.92;94827.16;5043445;28;20311;-63
2022/08/02 09:43:07;;;;;;;1.25;1.15;;;;;;;25.47;32.03;94827.56;5027492;28;20241;-64
2022/08/02 09:45:34;;;;;;;1.30;1.15;;;;;;;25.53;32.00;94818.47;5022670;28;20226;-63
2022/08/02 09:48:09;;;;;;;1.25;1.15;;;;;;;25.37;32.07;94824.72;5009954;28;20252;-63
2022/08/02 09:50:40;;;;;;;1.10;1.00;;;;;;;25.47;32.71;94822.19;5040990;28;20225;-63
2022/08/02 09:53:14;;;;;;;1.00;1.00;;;;;;;25.38;32.79;94812.88;5042576;28;20311;-64
2022/08/02 09:55:40;;;;;;;1.05;1.00;;;;;;;25.45;33.49;94815.41;5042197;28;20236;-63
2022/08/02 09:58:19;;;;;;;0.90;0.90;;;;;;;25.84;31.35;94805.41;5026339;28;20237;-62
2022/08/02 10:00:53;;;;;;;0.93;0.93;;;;;;;26.06;31.67;94804.53;5056974;28;20272;-63
2022/08/02 10:03:18;;;;;;;0.80;0.80;;;;;;;26.15;30.90;94805.72;5028542;28;20309;-62
2022/08/02 10:05:57;;;;;;;1.00;1.00;;;;;;;26.42;31.58;94807.59;5054568;28;20248;-63
2022/08/02 10:08:24;;;;;;;1.88;1.15;;;;;;;26.59;31.38;94808.31;5016730;28;20210;-63
2022/08/02 10:10:59;;;;;;;0.93;0.93;;;;;;;26.66;30.43;94808.91;5022543;28;20286;-63
2022/08/02 10:13:28;;;;;;;1.13;1.05;;;;;;;26.74;30.40;94808.44;5033397;28;20316;-63
2022/08/02 10:15:55;;;;;;;1.73;1.13;;;;;;;26.84;30.02;94803.13;5039197;28;20291;-63
2022/08/02 10:18:21;;;;;;;2.15;1.10;;;;;;;26.75;30.01;94799.25;5035909;28;20213;-64
2022/08/02 10:20:48;;;;;;;1.13;1.13;;;;;;;26.77;31.05;94796.31;5043592;28;20303;-65
2022/08/02 10:23:15;;;;;;;2.38;1.10;;;;;;;26.67;31.53;94788.97;5036341;28;20201;-63
2022/08/02 10:25:43;;;;;;;1.20;1.08;;;;;;;26.72;31.47;94794.38;5043500;28;20289;-62
2022/08/02 10:28:11;;;;;;;1.88;1.33;;;;;;;26.50;31.10;94794.47;5042464;28;20223;-64
2022/08/02 10:30:39;;;;;;;1.50;1.10;;;;;;;26.24;31.44;94800.69;5040241;28;20225;-64
2022/08/02 10:33:07;;;;;;;1.08;1.00;;;;;;;26.52;30.18;94795.06;5046680;28;20344;-63
2022/08/02 10:35:36;;;;;;;3.33;1.00;;;;;;;26.81;29.93;94790.16;5043940;28;20225;-64
2022/08/02 10:38:09;;;;;;;0.90;0.90;;;;;;;26.97;28.89;94792.94;5023122;28;20214;-63
2022/08/02 10:40:48;;;;;;;1.58;0.85;;;;;;;27.40;28.85;94793.75;5043589;28;20260;-62
2022/08/02 10:43:35;;;;;;;1.00;1.00;;;;;;;27.45;29.06;94805.41;5045778;28;20232;-63
2022/08/02 10:46:30;;;;;;;1.17;1.08;;;;;;;27.03;29.45;94794.63;5029483;28;20226;-63
2022/08/02 10:49:06;;;;;;;3.20;1.45;;;;;;;26.91;29.95;94799.38;5023872;28;20222;-64
2022/08/02 10:51:51;;;;;;;2.45;1.23;;;;;;;26.97;30.20;94791.09;5054659;28;20224;-63
2022/08/02 10:54:25;;;;;;;1.77;1.20;;;;;;;27.34;29.97;94790.22;5045822;28;20483;-64
2022/08/02 10:56:54;;;;;;;1.38;1.27;;;;;;;27.73;29.61;94795.25;5039001;28;20217;-63
2022/08/02 10:59:25;;;;;;;1.40;1.30;;;;;;;27.98;29.58;94789.16;5041232;28;20225;-62
2022/08/02 11:01:52;;;;;;;2.00;1.90;;;;;;;28.40;29.20;94792.75;5041472;28;20351;-62
2022/08/02 11:04:17;;;;;;;2.05;1.30;;;;;;;28.47;28.61;94787.91;5041848;28;20293;-63
2022/08/02 11:07:25;;;;;;;2.83;1.20;;;;;;;29.01;27.95;94788.16;5042128;28;20370;-64
2022/08/02 11:09:50;;;;;;;4.03;3.63;;;;;;;29.25;26.95;94782.19;5044324;28;20252;-63
2022/08/02 11:12:18;;;;;;;3.55;2.33;;;;;;;29.03;27.17;94791.41;5047772;28;20253;-63
2022/08/02 11:15:05;;;;;;;2.95;1.40;;;;;;;29.29;26.70;94780.53;5043155;28;20278;-68
2022/08/02 11:17:54;;;;;;;0.98;0.98;;;;;;;29.56;25.85;94779.38;5039314;28;20257;-67
2022/08/02 11:20:23;;;;;;;1.15;1.05;;;;;;;29.71;25.96;94781.25;5052495;28;20691;-66
2022/08/02 11:22:51;;;;;;;2.75;1.75;;;;;;;30.13;26.20;94774.53;5042456;28;20213;-67
2022/08/02 11:25:23;;;;;;;3.90;1.20;;;;;;;30.42;26.04;94777.34;5044534;28;20274;-66
2022/08/02 11:27:50;;;;;;;2.58;1.20;;;;;;;30.66;25.17;94780.97;5042837;28;20306;-66
2022/08/02 11:30:16;;;;;;;2.47;1.42;;;;;;;30.70;25.47;94782.00;5046743;28;20225;-67
2022/08/02 11:32:41;;;;;;;1.30;1.20;;;;;;;30.57;25.19;94784.56;5034948;28;20329;-67
2022/08/02 11:35:07;;;;;;;1.65;1.00;;;;;;;29.66;25.66;94784.78;5022578;28;20513;-67
2022/08/02 11:37:38;;;;;;;2.33;1.40;;;;;;;29.88;26.46;94785.25;5022751;28;20202;-67
2022/08/02 11:40:06;;;;;;;1.15;1.05;;;;;;;29.40;26.19;94779.44;5058444;28;20349;-67
2022/08/02 11:42:33;;;;;;;2.40;1.20;;;;;;;29.36;26.32;94791.91;5044923;28;20221;-67
2022/08/02 11:44:59;;;;;;;1.30;1.20;;;;;;;29.69;26.09;94773.38;5040883;28;20322;-66